Time;durP1;ratioP1;P1;durP2;ratioP2;P2;SDS_P1;SDS_P2;PMS_P1;PMS_P2;Temp;Humidity;BMP_temperature;BMP_pressure;BME280_temperature;BME280_humidity;BME280_pressure;Samples;Min_cycle;Max_cycle;Signal;HPM_P1;HPM_P2
2022/07/27 00:00:58;;;;;;;5.63;1.45;;;;;;;16.40;55.78;100914.13;5039894;28;20521;-57
2022/07/27 00:03:25;;;;;;;9.02;1.55;;;;;;;16.36;55.85;100915.34;5042692;28;20521;-52
2022/07/27 00:05:52;;;;;;;8.65;1.55;;;;;;;16.33;55.66;100920.88;5037340;28;20117;-54
2022/07/27 00:08:21;;;;;;;5.75;1.88;;;;;;;16.29;55.37;100914.94;5033968;28;20050;-56
2022/07/27 00:10:49;;;;;;;3.28;1.38;;;;;;;16.31;55.70;100920.16;5036079;28;20087;-56
2022/07/27 00:13:16;;;;;;;8.82;2.03;;;;;;;16.30;55.71;100915.78;5029957;28;20065;-53
2022/07/27 00:15:43;;;;;;;9.23;1.70;;;;;;;16.28;55.81;100920.41;5030644;28;20288;-56
2022/07/27 00:18:10;;;;;;;6.25;1.70;;;;;;;16.26;55.79;100925.00;5037261;28;20068;-56
2022/07/27 00:20:38;;;;;;;6.78;1.73;;;;;;;16.25;55.85;100924.13;5033244;28;20140;-54
2022/07/27 00:23:06;;;;;;;10.95;1.80;;;;;;;16.18;56.28;100926.44;5040333;28;20067;-54
2022/07/27 00:25:34;;;;;;;8.82;1.75;;;;;;;16.17;56.15;100924.75;5034791;28;20045;-54
2022/07/27 00:28:02;;;;;;;8.90;1.63;;;;;;;16.16;56.18;100928.34;5036525;28;20068;-56
2022/07/27 00:30:29;;;;;;;11.13;1.73;;;;;;;16.13;55.70;100922.44;5043651;28;20406;-55
2022/07/27 00:32:56;;;;;;;5.97;1.23;;;;;;;16.14;56.07;100935.59;5035277;28;20064;-53
2022/07/27 00:35:24;;;;;;;9.05;1.63;;;;;;;16.08;55.72;100919.31;5038005;28;20061;-55
2022/07/27 00:37:51;;;;;;;6.55;1.55;;;;;;;16.05;55.42;100930.16;5032278;28;20054;-56
2022/07/27 00:40:18;;;;;;;7.90;1.48;;;;;;;15.99;55.49;100914.69;5035882;28;20045;-52
2022/07/27 00:42:45;;;;;;;4.40;1.20;;;;;;;15.97;56.00;100921.91;5034879;28;20440;-55
2022/07/27 00:45:13;;;;;;;6.68;1.42;;;;;;;15.90;55.61;100924.22;5037597;28;20050;-53
2022/07/27 00:47:40;;;;;;;11.90;1.88;;;;;;;15.81;55.91;100909.00;5034328;28;20049;-54
2022/07/27 00:50:08;;;;;;;9.43;1.42;;;;;;;15.76;56.19;100912.00;5038597;28;20057;-57
2022/07/27 00:52:37;;;;;;;7.75;1.42;;;;;;;15.69;56.24;100916.06;5036736;28;20049;-57
2022/07/27 00:55:04;;;;;;;7.40;1.67;;;;;;;15.60;56.79;100917.56;5029328;28;20174;-58
2022/07/27 00:57:32;;;;;;;3.53;1.45;;;;;;;15.53;56.84;100921.63;5031064;28;20454;-58
2022/07/27 01:00:20;;;;;;;6.05;1.52;;;;;;;15.47;57.06;100924.75;5029522;28;20063;-57
2022/07/27 01:06:56;;;;;;;5.45;1.25;;;;;;;15.29;57.77;100926.97;5019024;28;20048;-57
2022/07/27 01:12:13;;;;;;;5.13;1.10;;;;;;;15.22;58.07;100919.56;5033425;28;20083;-54
2022/07/27 01:14:40;;;;;;;7.72;1.17;;;;;;;15.19;58.20;100918.84;5033649;28;20053;-58
2022/07/27 01:17:08;;;;;;;6.43;1.17;;;;;;;15.17;58.44;100923.44;5031982;28;20050;-56
2022/07/27 01:19:35;;;;;;;6.20;1.45;;;;;;;15.13;58.51;100926.38;5032521;28;20045;-56
2022/07/27 01:22:03;;;;;;;5.15;1.35;;;;;;;15.09;58.86;100924.94;5034714;28;20065;-51
2022/07/27 01:24:31;;;;;;;5.55;1.02;;;;;;;15.00;59.18;100925.63;5039260;28;20057;-54
2022/07/27 01:27:00;;;;;;;6.78;1.48;;;;;;;14.95;59.06;100923.31;5026807;28;20058;-53
2022/07/27 01:29:28;;;;;;;9.10;1.15;;;;;;;14.93;59.28;100930.50;5028111;28;20051;-54
2022/07/27 01:31:55;;;;;;;4.68;1.33;;;;;;;14.89;59.38;100929.03;5032015;28;20057;-55
2022/07/27 01:34:23;;;;;;;10.95;2.05;;;;;;;14.82;60.08;100923.34;5031820;28;20235;-57
2022/07/27 01:36:50;;;;;;;7.38;1.45;;;;;;;14.78;60.45;100927.16;5030131;28;20050;-52
2022/07/27 01:39:18;;;;;;;4.40;1.38;;;;;;;14.78;60.19;100927.16;5039994;28;20067;-55
2022/07/27 01:41:45;;;;;;;5.47;1.63;;;;;;;14.74;60.72;100930.13;5039110;28;20107;-53
2022/07/27 01:44:13;;;;;;;4.03;1.10;;;;;;;14.68;60.47;100926.97;5031347;28;20060;-56
2022/07/27 01:46:40;;;;;;;7.93;2.03;;;;;;;14.63;61.06;100937.06;5027952;28;20073;-57
2022/07/27 01:49:07;;;;;;;11.82;1.48;;;;;;;14.59;61.71;100935.59;5010911;28;20062;-55
2022/07/27 01:51:35;;;;;;;5.55;1.23;;;;;;;14.55;62.22;100942.06;5009817;28;20717;-51
2022/07/27 01:54:02;;;;;;;7.53;1.58;;;;;;;14.51;62.30;100939.72;5011612;28;20056;-57
2022/07/27 01:56:29;;;;;;;5.95;1.10;;;;;;;14.45;62.49;100938.28;5016478;28;20072;-56
2022/07/27 01:58:57;;;;;;;7.00;1.50;;;;;;;14.40;62.85;100930.66;5044061;28;20076;-55
2022/07/27 02:01:24;;;;;;;5.45;1.45;;;;;;;14.37;62.55;100925.63;5035844;28;20060;-55
2022/07/27 02:03:52;;;;;;;9.57;1.73;;;;;;;14.35;63.38;100942.56;5028005;28;20065;-58
2022/07/27 02:06:19;;;;;;;8.85;1.88;;;;;;;14.28;63.53;100934.19;5034962;28;20064;-56
2022/07/27 02:08:46;;;;;;;4.25;1.10;;;;;;;14.23;63.71;100940.75;5028182;28;20068;-54
2022/07/27 02:13:58;;;;;;;6.70;1.60;;;;;;;14.17;63.72;100934.06;5033520;28;20305;-56
2022/07/27 02:16:26;;;;;;;6.97;1.38;;;;;;;14.13;64.23;100930.78;5030589;28;20386;-54
2022/07/27 02:18:54;;;;;;;6.13;1.50;;;;;;;14.08;64.55;100932.06;5036380;28;20568;-55
2022/07/27 02:21:21;;;;;;;6.18;1.35;;;;;;;14.05;65.46;100926.97;5031964;28;20409;-56
2022/07/27 02:23:48;;;;;;;3.78;1.08;;;;;;;14.01;65.05;100925.50;5036179;28;20049;-54
2022/07/27 02:26:15;;;;;;;9.25;1.52;;;;;;;13.94;65.58;100928.56;5033303;28;20525;-55
2022/07/27 02:28:42;;;;;;;7.07;1.33;;;;;;;13.94;65.33;100933.84;5033428;28;20081;-56
2022/07/27 02:31:10;;;;;;;6.22;1.50;;;;;;;13.90;66.34;100926.22;5041515;28;20049;-58
2022/07/27 02:33:37;;;;;;;6.97;2.03;;;;;;;13.86;66.01;100936.16;5053452;22;20046;-55
2022/07/27 02:36:04;;;;;;;4.80;1.20;;;;;;;13.85;66.39;100936.28;5037357;28;20145;-57
2022/07/27 02:38:31;;;;;;;8.00;1.65;;;;;;;13.82;66.56;100933.84;5036955;28;20412;-59
2022/07/27 02:40:58;;;;;;;5.13;1.30;;;;;;;13.80;66.82;100935.75;5032690;28;20060;-58
2022/07/27 02:43:25;;;;;;;6.28;1.13;;;;;;;13.77;66.97;100947.38;5035452;28;20060;-53
2022/07/27 02:45:52;;;;;;;7.15;1.75;;;;;;;13.72;67.39;100946.84;5033120;28;20477;-55
2022/07/27 02:48:20;;;;;;;7.07;1.25;;;;;;;13.70;67.50;100945.25;5036402;28;20053;-53
2022/07/27 02:50:47;;;;;;;7.93;1.80;;;;;;;13.65;67.90;100946.41;5033973;28;20053;-53
2022/07/27 02:53:14;;;;;;;8.77;1.88;;;;;;;13.62;67.99;100945.75;5038507;28;20047;-54
2022/07/27 02:55:41;;;;;;;8.38;1.50;;;;;;;13.58;68.46;100938.97;5036515;28;20517;-57
2022/07/27 02:58:08;;;;;;;5.65;1.17;;;;;;;13.56;68.44;100941.75;5036725;28;20471;-57
2022/07/27 03:00:36;;;;;;;8.00;1.40;;;;;;;13.55;68.69;100939.16;5035265;28;20065;-53
2022/07/27 03:03:03;;;;;;;12.50;1.45;;;;;;;13.53;69.11;100943.72;5033047;28;20048;-55
2022/07/27 03:05:30;;;;;;;6.75;1.63;;;;;;;13.50;69.28;100942.13;5036449;28;20056;-57
2022/07/27 03:07:57;;;;;;;3.53;1.20;;;;;;;13.49;69.73;100935.16;5033364;28;20057;-56
2022/07/27 03:10:24;;;;;;;4.50;1.48;;;;;;;13.50;70.07;100936.00;5028685;28;20064;-53
2022/07/27 03:12:51;;;;;;;6.60;1.60;;;;;;;13.48;70.19;100940.53;5039246;28;20060;-57
2022/07/27 03:15:18;;;;;;;5.43;1.30;;;;;;;13.46;70.05;100945.91;5030661;28;20498;-57
2022/07/27 03:17:45;;;;;;;6.90;1.20;;;;;;;13.43;70.12;100946.97;5031529;28;20068;-58
2022/07/27 03:20:13;;;;;;;6.40;1.00;;;;;;;13.42;69.86;100953.22;5031394;28;20099;-55
2022/07/27 03:22:40;;;;;;;5.88;1.20;;;;;;;13.39;70.75;100948.13;5035801;28;20049;-60
2022/07/27 03:25:08;;;;;;;9.90;1.45;;;;;;;13.38;70.92;100954.38;5031690;28;20053;-56
2022/07/27 03:27:35;;;;;;;7.95;1.40;;;;;;;13.38;70.93;100941.16;5037309;28;20529;-55
2022/07/27 03:30:04;;;;;;;4.55;1.30;;;;;;;13.39;70.86;100950.78;5042245;28;20064;-56
2022/07/27 03:32:31;;;;;;;6.88;1.40;;;;;;;13.39;70.62;100953.41;5037237;28;20061;-54
2022/07/27 03:34:58;;;;;;;13.68;2.08;;;;;;;13.34;71.45;100954.69;5028648;28;20041;-57
2022/07/27 03:37:25;;;;;;;5.30;1.20;;;;;;;13.33;71.60;100955.63;5033571;28;20107;-58
2022/07/27 03:39:52;;;;;;;8.50;1.92;;;;;;;13.29;71.81;100962.06;5039725;28;20054;-57
2022/07/27 03:42:19;;;;;;;6.15;1.38;;;;;;;13.29;71.85;100960.25;5034337;28;20140;-57
2022/07/27 03:44:47;;;;;;;6.10;1.48;;;;;;;13.34;71.45;100957.31;5030545;28;20057;-57
2022/07/27 03:47:14;;;;;;;8.93;1.52;;;;;;;13.27;71.99;100961.28;5036403;28;20053;-54
2022/07/27 03:49:41;;;;;;;9.27;1.27;;;;;;;13.29;71.74;100954.97;5031438;28;20052;-56
2022/07/27 03:52:08;;;;;;;6.72;1.55;;;;;;;13.31;71.90;100960.16;5038172;28;20053;-53
2022/07/27 03:54:41;;;;;;;5.82;1.98;;;;;;;13.31;71.86;100963.63;5035266;28;20654;-55
2022/07/27 03:57:08;;;;;;;7.05;1.17;;;;;;;13.31;72.18;100957.50;5028671;28;20056;-58
2022/07/27 03:59:35;;;;;;;5.47;1.23;;;;;;;13.30;71.74;100964.59;5031501;28;20068;-57
2022/07/27 04:02:03;;;;;;;4.82;1.17;;;;;;;13.32;71.90;100967.13;5031179;28;20057;-57
2022/07/27 04:04:30;;;;;;;5.65;1.35;;;;;;;13.33;71.81;100961.75;5037739;28;20045;-57
2022/07/27 04:06:58;;;;;;;5.68;1.00;;;;;;;13.33;72.13;100963.56;5029766;28;20084;-56
2022/07/27 04:09:25;;;;;;;4.97;1.25;;;;;;;13.29;72.36;100962.91;5037172;28;20425;-58
2022/07/27 04:11:54;;;;;;;15.25;1.60;;;;;;;13.30;72.14;100967.25;5038234;28;20081;-56
2022/07/27 04:14:21;;;;;;;4.90;1.23;;;;;;;13.35;72.43;100969.59;5037479;28;20053;-55
2022/07/27 04:16:49;;;;;;;6.03;1.40;;;;;;;13.34;72.25;100963.44;5033493;28;20524;-54
2022/07/27 04:19:16;;;;;;;7.25;1.83;;;;;;;13.31;72.32;100957.50;5037706;28;20052;-56
2022/07/27 04:21:43;;;;;;;5.97;1.50;;;;;;;13.31;72.67;100957.50;5040061;28;20057;-54
2022/07/27 04:24:10;;;;;;;9.85;1.45;;;;;;;13.30;72.52;100959.31;5041563;28;20128;-56
2022/07/27 04:26:38;;;;;;;11.05;1.63;;;;;;;13.32;71.96;100959.19;5034762;28;20065;-53
2022/07/27 04:29:05;;;;;;;8.43;1.50;;;;;;;13.29;72.38;100962.91;5042076;28;20053;-53
2022/07/27 04:31:32;;;;;;;7.25;1.38;;;;;;;13.29;72.12;100954.13;5043434;28;20047;-56
2022/07/27 04:33:59;;;;;;;4.78;1.50;;;;;;;13.29;72.20;100962.91;5044019;28;20068;-56
2022/07/27 04:36:27;;;;;;;6.38;2.53;;;;;;;13.31;71.86;100957.50;5037070;28;20073;-57
2022/07/27 04:38:54;;;;;;;7.18;1.10;;;;;;;13.33;71.61;100955.63;5041545;28;20061;-58
2022/07/27 04:41:21;;;;;;;9.25;2.80;;;;;;;13.36;71.22;100950.13;5036476;28;20405;-57
2022/07/27 04:43:57;;;;;;;8.63;1.77;;;;;;;13.41;71.29;100948.03;5039003;28;20056;-55
2022/07/27 04:46:25;;;;;;;7.30;1.40;;;;;;;13.45;71.27;100943.38;5031358;28;20053;-57
2022/07/27 04:48:53;;;;;;;10.32;2.00;;;;;;;13.51;70.79;100940.31;5043220;28;20526;-59
2022/07/27 04:51:20;;;;;;;6.40;1.13;;;;;;;13.59;70.17;100944.16;5041070;28;20056;-54
2022/07/27 04:53:47;;;;;;;6.88;2.25;;;;;;;13.60;70.13;100950.31;5049710;28;20088;-56
2022/07/27 04:56:25;;;;;;;8.55;1.55;;;;;;;13.71;70.03;100949.59;5039942;28;20049;-55
2022/07/27 04:58:53;;;;;;;7.50;1.38;;;;;;;13.82;68.93;100952.34;5037411;28;20084;-53
2022/07/27 05:01:21;;;;;;;7.60;1.60;;;;;;;13.91;69.02;100954.38;5053679;28;20057;-52
2022/07/27 05:03:49;;;;;;;4.53;1.20;;;;;;;13.94;68.46;100957.69;5039227;28;20064;-55
2022/07/27 05:06:16;;;;;;;6.75;1.90;;;;;;;14.01;67.86;100952.81;5039255;28;20045;-55
2022/07/27 05:08:44;;;;;;;6.63;1.50;;;;;;;14.04;68.09;100965.84;5038574;28;20386;-55
2022/07/27 05:11:11;;;;;;;8.30;1.70;;;;;;;14.09;67.73;100952.28;5031416;28;20064;-55
2022/07/27 05:13:39;;;;;;;9.30;1.48;;;;;;;14.13;67.37;100962.56;5036374;28;20069;-57
2022/07/27 05:16:10;;;;;;;9.23;1.50;;;;;;;14.19;67.36;100962.16;5039589;28;20060;-56
2022/07/27 05:18:37;;;;;;;4.88;1.45;;;;;;;14.25;67.32;100965.34;5031070;28;20057;-54
2022/07/27 05:21:05;;;;;;;4.80;1.35;;;;;;;14.30;67.18;100957.91;5033841;28;20097;-60
2022/07/27 05:23:33;;;;;;;11.55;1.65;;;;;;;14.27;66.74;100969.56;5053741;28;20409;-54
2022/07/27 05:26:00;;;;;;;7.32;2.15;;;;;;;14.33;66.68;100969.16;5034610;28;20052;-58
2022/07/27 05:28:28;;;;;;;7.78;1.73;;;;;;;14.28;66.90;100976.56;5037914;28;20059;-59
2022/07/27 05:30:55;;;;;;;5.03;1.70;;;;;;;14.30;66.36;100974.66;5045052;28;20416;-55
2022/07/27 05:33:22;;;;;;;7.70;1.63;;;;;;;14.35;67.01;100974.34;5039562;28;20046;-54
2022/07/27 05:35:49;;;;;;;6.18;1.20;;;;;;;14.35;66.82;100987.56;5034034;28;20065;-57
2022/07/27 05:38:16;;;;;;;8.63;1.35;;;;;;;14.35;66.67;100982.28;5017821;28;20132;-55
2022/07/27 05:40:45;;;;;;;4.88;1.15;;;;;;;14.25;67.32;100994.47;5036386;28;20051;-55
2022/07/27 05:43:12;;;;;;;11.73;2.00;;;;;;;14.26;68.09;100983.75;5032424;28;20064;-56
2022/07/27 05:45:39;;;;;;;6.63;1.45;;;;;;;14.32;67.84;100988.66;5038263;28;20052;-57
2022/07/27 05:48:07;;;;;;;9.38;1.33;;;;;;;14.36;68.04;100995.44;5032471;28;20562;-56
2022/07/27 05:50:34;;;;;;;8.27;1.50;;;;;;;14.53;67.50;101001.38;5034862;28;20045;-53
2022/07/27 05:53:02;;;;;;;12.65;1.70;;;;;;;14.62;67.71;101004.22;5032447;28;20060;-57
2022/07/27 05:55:29;;;;;;;8.85;1.58;;;;;;;14.61;68.13;101009.66;5036701;28;20049;-58
2022/07/27 05:57:56;;;;;;;7.75;1.40;;;;;;;14.61;68.20;101007.84;5035613;28;20439;-53
2022/07/27 06:00:23;;;;;;;8.25;1.65;;;;;;;14.75;67.80;101011.34;5043411;28;20049;-54
2022/07/27 06:02:51;;;;;;;4.43;1.20;;;;;;;14.63;68.10;101010.38;5036182;28;20053;-55
2022/07/27 06:05:18;;;;;;;9.05;1.85;;;;;;;14.62;67.84;101006.88;5032087;28;20061;-57
2022/07/27 06:08:07;;;;;;;10.63;1.63;;;;;;;14.61;68.00;101007.84;5035834;28;20057;-55
2022/07/27 06:10:36;;;;;;;5.80;1.38;;;;;;;14.80;68.02;101010.03;5027059;28;20049;-56
2022/07/27 06:13:05;;;;;;;10.65;2.08;;;;;;;14.91;67.38;101007.50;5042272;28;20087;-53
2022/07/27 06:15:32;;;;;;;6.05;1.30;;;;;;;15.04;67.48;101011.91;5030371;28;20048;-55
2022/07/27 06:17:59;;;;;;;7.55;1.58;;;;;;;15.13;66.91;101014.78;5030375;28;20061;-58
2022/07/27 06:20:27;;;;;;;17.50;1.90;;;;;;;15.29;66.19;101019.81;5037753;28;20136;-57
2022/07/27 06:22:56;;;;;;;13.48;3.00;;;;;;;15.26;66.39;101019.16;5035901;28;20057;-57
2022/07/27 06:25:24;;;;;;;10.82;1.60;;;;;;;15.37;66.13;101004.19;5054223;28;20053;-56
2022/07/27 06:28:05;;;;;;;9.23;1.60;;;;;;;15.14;66.52;101011.16;5035613;28;20049;-56
2022/07/27 06:30:32;;;;;;;11.85;1.40;;;;;;;15.16;66.79;101003.94;5036625;28;20526;-56
2022/07/27 06:33:03;;;;;;;12.63;1.63;;;;;;;15.29;66.58;101005.69;5037984;28;20083;-55
2022/07/27 06:35:32;;;;;;;8.15;1.55;;;;;;;15.45;66.10;101003.63;5032678;28;20051;-55
2022/07/27 06:38:00;;;;;;;7.03;1.50;;;;;;;15.52;64.23;101015.47;5033504;28;20053;-57
2022/07/27 06:40:27;;;;;;;10.18;1.50;;;;;;;15.33;62.89;101008.00;5044487;28;20052;-55
2022/07/27 06:42:57;;;;;;;5.13;1.08;;;;;;;15.42;63.59;101007.34;5048158;28;20045;-53
2022/07/27 06:45:25;;;;;;;9.75;1.50;;;;;;;15.47;63.43;101008.81;5035578;28;20061;-53
2022/07/27 06:47:53;;;;;;;7.40;1.48;;;;;;;15.59;62.69;101019.38;5034956;28;20060;-53
2022/07/27 06:50:20;;;;;;;12.57;1.63;;;;;;;15.61;62.69;101022.75;5021122;28;20524;-53
2022/07/27 06:52:48;;;;;;;10.65;2.17;;;;;;;15.75;62.05;101015.63;5039905;28;20041;-53
2022/07/27 06:55:15;;;;;;;7.22;1.50;;;;;;;15.90;61.72;101017.16;5029704;28;20068;-56
2022/07/27 06:57:42;;;;;;;9.82;1.38;;;;;;;16.08;60.61;101014.91;5039892;28;20623;-57
2022/07/27 07:00:10;;;;;;;6.90;1.40;;;;;;;15.99;60.92;101027.06;5039886;28;20053;-53
2022/07/27 07:02:39;;;;;;;6.68;1.75;;;;;;;16.26;60.12;101010.84;5033175;28;20056;-57
2022/07/27 07:05:06;;;;;;;8.30;1.60;;;;;;;16.02;59.81;101021.50;5029617;28;20144;-56
2022/07/27 07:07:33;;;;;;;11.07;1.65;;;;;;;16.16;59.95;101020.47;5037610;28;20053;-56
2022/07/27 07:10:00;;;;;;;6.32;1.60;;;;;;;16.36;59.71;101025.13;5031938;28;20053;-55
2022/07/27 07:12:27;;;;;;;10.50;1.90;;;;;;;16.54;59.49;101024.66;5054477;28;20045;-54
2022/07/27 07:14:54;;;;;;;6.72;1.23;;;;;;;16.64;58.40;101029.13;5028682;28;20057;-57
2022/07/27 07:17:22;;;;;;;10.00;1.95;;;;;;;16.78;57.11;101019.25;5025589;28;20052;-56
2022/07/27 07:19:49;;;;;;;9.68;2.50;;;;;;;16.62;57.49;101024.91;5028876;28;20054;-58
2022/07/27 07:22:16;;;;;;;5.18;1.90;;;;;;;16.90;57.18;101031.59;5035372;28;20046;-53
2022/07/27 07:24:43;;;;;;;7.55;1.35;;;;;;;16.72;57.35;101023.25;5030245;28;20675;-57
2022/07/27 07:27:10;;;;;;;7.10;1.33;;;;;;;16.91;57.05;101023.50;5036812;28;20053;-57
2022/07/27 07:29:37;;;;;;;2.75;0.90;;;;;;;16.99;57.21;101022.91;5028007;28;20491;-54
2022/07/27 07:32:05;;;;;;;4.45;1.38;;;;;;;17.09;56.66;101017.69;5036919;28;20055;-53
2022/07/27 07:34:32;;;;;;;6.57;1.70;;;;;;;16.92;56.44;101013.69;5036148;28;20049;-56
2022/07/27 07:36:59;;;;;;;6.47;1.45;;;;;;;16.83;56.33;101030.38;5037488;28;20049;-56
2022/07/27 07:39:26;;;;;;;5.50;1.25;;;;;;;17.00;54.88;101031.72;5040648;28;20058;-54
2022/07/27 07:41:57;;;;;;;2.92;0.90;;;;;;;17.16;54.07;101024.22;5041331;28;20049;-58
2022/07/27 07:44:25;;;;;;;6.88;1.77;;;;;;;17.28;53.86;101025.88;5037878;28;20401;-55
2022/07/27 07:46:52;;;;;;;8.55;1.73;;;;;;;17.37;53.04;101025.13;5034684;28;20057;-58
2022/07/27 07:49:21;;;;;;;6.70;1.38;;;;;;;17.77;52.66;101023.72;5038607;28;20079;-55
2022/07/27 07:52:06;;;;;;;3.92;0.90;;;;;;;18.01;51.84;101034.97;5033693;28;20076;-58
2022/07/27 07:54:33;;;;;;;9.55;1.50;;;;;;;18.03;50.16;101029.53;5034881;28;20678;-57
2022/07/27 07:57:00;;;;;;;3.58;0.88;;;;;;;17.90;49.89;101040.38;5034495;28;20143;-58
2022/07/27 07:59:28;;;;;;;5.47;0.80;;;;;;;17.84;49.22;101028.41;5037726;28;20524;-56
2022/07/27 08:01:55;;;;;;;5.97;1.15;;;;;;;17.55;50.89;101024.59;5041461;28;20049;-58
2022/07/27 08:04:22;;;;;;;3.58;0.93;;;;;;;17.59;51.64;101024.22;5040121;28;20057;-56
2022/07/27 08:06:49;;;;;;;7.70;1.45;;;;;;;17.47;51.28;101030.53;5038200;28;20462;-57
2022/07/27 08:09:17;;;;;;;8.73;1.90;;;;;;;17.48;50.99;101024.25;5032770;28;20057;-56
2022/07/27 08:11:44;;;;;;;5.25;1.48;;;;;;;17.71;50.39;101033.03;5043404;28;20053;-54
2022/07/27 08:14:11;;;;;;;4.00;1.10;;;;;;;17.79;49.76;101027.09;5036636;28;20085;-58
2022/07/27 08:16:38;;;;;;;4.85;1.00;;;;;;;17.62;50.38;101029.31;5032010;28;20045;-56
2022/07/27 08:19:07;;;;;;;4.55;1.00;;;;;;;17.44;51.62;101042.28;5044637;28;20405;-57
2022/07/27 08:21:35;;;;;;;4.63;1.10;;;;;;;17.33;50.84;101042.31;5036511;28;20120;-56
2022/07/27 08:24:02;;;;;;;3.17;1.10;;;;;;;17.13;49.91;101041.25;5034958;28;20065;-53
2022/07/27 08:26:29;;;;;;;6.88;1.30;;;;;;;17.22;50.46;101047.66;5037634;28;20052;-55
2022/07/27 08:28:57;;;;;;;7.50;1.38;;;;;;;17.19;49.80;101039.91;5037533;28;20054;-59
2022/07/27 08:31:33;;;;;;;10.02;1.13;;;;;;;17.14;48.36;101045.59;5041120;28;20383;-56
2022/07/27 08:34:19;;;;;;;4.82;0.95;;;;;;;17.21;49.04;101046.81;5047648;22;20041;-55
2022/07/27 08:36:46;;;;;;;4.50;0.90;;;;;;;17.61;48.42;101043.59;5047776;28;20412;-55
2022/07/27 08:39:13;;;;;;;4.70;1.40;;;;;;;17.70;49.45;101049.97;5056505;28;20432;-54
2022/07/27 08:42:05;;;;;;;4.47;1.40;;;;;;;17.74;48.99;101048.75;5054191;28;20413;-55
2022/07/27 08:44:32;;;;;;;5.88;0.93;;;;;;;18.03;48.13;101058.84;5049389;28;20071;-56
2022/07/27 08:47:02;;;;;;;8.10;0.80;;;;;;;18.19;47.20;101057.44;5053131;28;20053;-52
2022/07/27 08:49:30;;;;;;;8.43;1.45;;;;;;;18.13;46.79;101049.94;5059382;28;20056;-53
2022/07/27 08:52:10;;;;;;;4.28;0.93;;;;;;;18.07;47.49;101050.47;5053195;28;20056;-52
2022/07/27 08:54:39;;;;;;;4.28;0.90;;;;;;;17.91;47.82;101058.03;5053096;28;20179;-59
2022/07/27 08:57:09;;;;;;;6.60;1.48;;;;;;;17.81;48.04;101052.63;5056061;28;20048;-55
2022/07/27 08:59:36;;;;;;;7.13;0.95;;;;;;;17.75;48.19;101054.97;5053831;28;20045;-59
2022/07/27 09:02:09;;;;;;;3.60;1.00;;;;;;;17.83;48.31;101064.00;5051342;28;20052;-56
2022/07/27 09:04:39;;;;;;;5.10;1.40;;;;;;;17.80;47.78;101056.25;5055299;28;20124;-57
2022/07/27 09:07:06;;;;;;;6.97;1.33;;;;;;;17.48;48.87;101061.53;5060702;28;20052;-57
2022/07/27 09:09:53;;;;;;;2.50;0.80;;;;;;;17.45;48.66;101053.78;5046597;28;20476;-58
2022/07/27 09:12:26;;;;;;;6.30;1.30;;;;;;;17.61;48.66;101051.56;5054292;28;20056;-51
2022/07/27 09:15:13;;;;;;;7.18;1.05;;;;;;;18.04;48.55;101055.19;5048877;28;20086;-54
2022/07/27 09:17:43;;;;;;;9.48;1.38;;;;;;;18.30;48.62;101055.69;5050218;28;20064;-51
2022/07/27 09:20:17;;;;;;;6.07;1.42;;;;;;;18.72;47.81;101064.53;5053917;28;20052;-52
2022/07/27 09:22:49;;;;;;;5.72;1.10;;;;;;;19.06;46.07;101051.75;5057767;28;20060;-58
2022/07/27 09:25:22;;;;;;;5.00;1.05;;;;;;;18.78;45.09;101058.66;5049496;28;20060;-54
2022/07/27 09:28:09;;;;;;;10.43;1.40;;;;;;;18.35;46.51;101058.78;5056843;28;20060;-54
2022/07/27 09:30:41;;;;;;;6.43;1.30;;;;;;;18.18;48.00;101053.06;5049823;28;20070;-52
2022/07/27 09:33:09;;;;;;;13.98;1.98;;;;;;;18.35;47.58;101053.47;5059568;28;20051;-54
2022/07/27 09:35:36;;;;;;;3.75;1.08;;;;;;;18.33;48.20;101058.09;5050633;28;20059;-55
2022/07/27 09:38:20;;;;;;;3.92;1.05;;;;;;;18.25;47.70;101057.88;5055706;28;20654;-55
2022/07/27 09:41:07;;;;;;;8.35;1.15;;;;;;;18.41;47.55;101064.44;5054098;28;20065;-55
2022/07/27 09:43:47;;;;;;;6.57;1.25;;;;;;;18.20;48.35;101064.44;5052180;28;20056;-55
2022/07/27 09:46:36;;;;;;;4.13;1.17;;;;;;;18.27;47.15;101048.78;5041935;28;20377;-51
2022/07/27 09:49:04;;;;;;;5.85;1.27;;;;;;;18.22;47.18;101057.16;5053434;28;20409;-51
2022/07/27 09:51:32;;;;;;;7.10;1.67;;;;;;;18.30;46.55;101053.84;5048635;28;20049;-53
2022/07/27 09:54:19;;;;;;;7.18;1.13;;;;;;;18.67;45.92;101050.72;5043917;28;20377;-55
2022/07/27 09:56:58;;;;;;;6.00;1.25;;;;;;;18.81;44.82;101052.22;5051967;28;20056;-53
2022/07/27 09:59:26;;;;;;;6.35;1.27;;;;;;;19.06;44.91;101049.09;5061796;28;20082;-53
2022/07/27 10:01:54;;;;;;;3.17;1.08;;;;;;;19.15;44.61;101050.97;5054636;28;20076;-53
2022/07/27 10:04:22;;;;;;;4.93;1.13;;;;;;;19.02;43.93;101050.34;5043507;28;20041;-56
2022/07/27 10:06:49;;;;;;;6.00;1.38;;;;;;;18.98;44.52;101054.25;5056650;28;20075;-54
2022/07/27 10:09:30;;;;;;;4.38;1.30;;;;;;;18.93;43.70;101064.50;5038338;28;20505;-56
2022/07/27 10:11:57;;;;;;;3.03;1.20;;;;;;;19.25;43.58;101045.66;5058573;28;20051;-58
2022/07/27 10:14:24;;;;;;;6.55;1.58;;;;;;;19.25;43.69;101042.97;5052198;28;20048;-58
2022/07/27 10:16:52;;;;;;;3.85;1.17;;;;;;;19.64;43.50;101035.91;5048793;28;20057;-53
2022/07/27 10:19:37;;;;;;;4.13;1.10;;;;;;;20.03;43.11;101037.75;5052187;28;20500;-57
2022/07/27 10:22:04;;;;;;;7.10;1.25;;;;;;;20.06;42.04;101043.66;5050438;28;20049;-55
2022/07/27 10:24:35;;;;;;;7.90;1.20;;;;;;;20.02;42.15;101050.25;5058729;28;20478;-54
2022/07/27 10:27:40;;;;;;;3.70;1.20;;;;;;;19.50;43.03;101049.66;5053502;28;20048;-56
2022/07/27 10:30:08;;;;;;;4.28;1.20;;;;;;;19.75;42.42;101045.63;4968608;28;20297;-55
2022/07/27 10:32:35;;;;;;;4.45;1.10;;;;;;;19.99;41.98;101053.22;4975214;28;20195;-53
2022/07/27 10:35:03;;;;;;;5.18;1.05;;;;;;;20.08;42.28;101048.84;5015897;28;20307;-53
2022/07/27 10:37:32;;;;;;;5.18;1.00;;;;;;;20.13;42.46;101050.13;5068460;28;20048;-58
2022/07/27 10:43:06;;;;;;;8.55;1.50;;;;;;;20.19;42.49;101051.38;5058788;28;20148;-57
2022/07/27 10:45:43;;;;;;;6.13;1.20;;;;;;;20.20;42.63;101047.72;5054926;28;20211;-54
2022/07/27 10:48:38;;;;;;;6.60;1.30;;;;;;;20.15;43.01;101050.81;5048818;28;20045;-56
2022/07/27 10:51:15;;;;;;;5.70;1.20;;;;;;;19.99;42.99;101042.53;5049994;28;20087;-53
2022/07/27 10:53:43;;;;;;;10.50;1.38;;;;;;;19.94;42.95;101047.44;5056767;28;20451;-53
2022/07/27 10:56:44;;;;;;;3.42;1.10;;;;;;;19.76;43.08;101033.94;5046847;28;20053;-58
2022/07/27 10:59:11;;;;;;;6.20;1.40;;;;;;;20.22;43.35;101035.91;5057747;28;20106;-58
2022/07/27 11:01:57;;;;;;;9.35;1.48;;;;;;;20.53;42.29;101049.09;5052865;28;20064;-51
2022/07/27 11:04:25;;;;;;;3.75;1.17;;;;;;;20.35;41.76;101034.75;5041552;28;20523;-53
2022/07/27 11:06:56;;;;;;;4.85;1.00;;;;;;;20.37;41.79;101038.13;5056597;28;20541;-54
2022/07/27 11:09:45;;;;;;;9.75;1.50;;;;;;;20.12;42.13;101051.09;5043369;28;20053;-55
2022/07/27 11:12:32;;;;;;;3.88;1.10;;;;;;;19.76;42.57;101046.47;5056231;28;20056;-55
2022/07/27 11:14:59;;;;;;;4.00;1.20;;;;;;;20.15;42.54;101042.81;5052899;28;20048;-56
2022/07/27 11:17:28;;;;;;;3.95;1.52;;;;;;;20.56;41.87;101050.66;5047251;28;20059;-51
2022/07/27 11:20:21;;;;;;;2.80;1.10;;;;;;;20.68;41.87;101042.31;5047694;28;20620;-56
2022/07/27 11:22:48;;;;;;;6.35;1.50;;;;;;;20.36;42.67;101037.28;5055790;28;20059;-54
2022/07/27 11:25:35;;;;;;;9.48;1.52;;;;;;;20.52;42.45;101038.56;5048857;28;20095;-54
2022/07/27 11:28:06;;;;;;;8.88;1.60;;;;;;;20.84;41.90;101043.50;5055566;28;20064;-55
2022/07/27 11:30:33;;;;;;;3.60;1.38;;;;;;;21.08;40.74;101030.47;5055348;28;20421;-54
2022/07/27 11:33:02;;;;;;;8.38;1.35;;;;;;;21.29;39.74;101032.88;5056566;28;20052;-55
2022/07/27 11:35:30;;;;;;;5.88;1.30;;;;;;;21.10;39.81;101036.50;5054765;28;20052;-53
2022/07/27 11:38:01;;;;;;;6.53;1.33;;;;;;;21.08;40.03;101024.28;5061131;28;20051;-58
2022/07/27 11:40:41;;;;;;;6.05;1.17;;;;;;;21.16;40.01;101027.88;5058071;28;20055;-56
2022/07/27 11:43:39;;;;;;;6.03;1.40;;;;;;;21.10;40.60;101032.97;5054803;28;20580;-56
2022/07/27 11:46:14;;;;;;;3.92;1.10;;;;;;;20.82;40.42;101038.31;5049864;28;20056;-56
2022/07/27 11:48:52;;;;;;;3.40;1.10;;;;;;;20.26;41.43;101031.09;5061329;28;20059;-53